TimeCST,TemperatureF,Dew PointF,Humidity,Sea Level PressureIn,VisibilityMPH,Wind Direction,Wind SpeedMPH,Gust SpeedMPH,PrecipitationIn,Events,Conditions,WindDirDegrees,DateUTC
12:15 AM,12.7,7.3,79,30.21,10.0,SSE,6.9,-,N/A,,Clear,150,2013-01-23 06:15:00
12:35 AM,12.7,7.5,80,30.21,10.0,SSE,5.8,-,N/A,,Clear,160,2013-01-23 06:35:00
12:55 AM,13.1,7.7,79,30.19,10.0,SSE,5.8,-,N/A,,Clear,160,2013-01-23 06:55:00
1:15 AM,12.6,7.3,80,30.19,10.0,SSE,5.8,-,N/A,,Clear,160,2013-01-23 07:15:00
1:35 AM,12.7,7.7,80,30.18,10.0,South,6.9,-,N/A,,Clear,170,2013-01-23 07:35:00
1:55 AM,12.2,7.3,81,30.17,10.0,South,6.9,-,N/A,,Clear,170,2013-01-23 07:55:00
2:15 AM,12.9,7.9,80,30.17,10.0,South,10.4,-,N/A,,Clear,180,2013-01-23 08:15:00
2:35 AM,13.1,7.7,79,30.18,10.0,South,9.2,-,N/A,,Clear,170,2013-01-23 08:35:00
2:55 AM,13.3,8.1,80,30.17,10.0,South,10.4,-,N/A,,Clear,170,2013-01-23 08:55:00
3:15 AM,13.8,8.4,79,30.16,10.0,South,11.5,-,N/A,,Clear,170,2013-01-23 09:15:00
3:35 AM,14.0,8.6,79,30.16,10.0,South,10.4,-,N/A,,Clear,170,2013-01-23 09:35:00
3:55 AM,14.0,8.6,79,30.15,10.0,South,10.4,-,N/A,,Clear,170,2013-01-23 09:55:00
4:15 AM,14.0,8.6,79,30.14,10.0,South,9.2,-,N/A,,Clear,170,2013-01-23 10:15:00
4:35 AM,13.8,8.4,79,30.15,10.0,South,6.9,-,N/A,,Clear,170,2013-01-23 10:35:00
4:55 AM,13.8,8.4,79,30.13,10.0,South,9.2,-,N/A,,Clear,180,2013-01-23 10:55:00
5:15 AM,13.6,8.2,79,30.13,10.0,South,6.9,-,N/A,,Clear,180,2013-01-23 11:15:00
5:35 AM,13.6,8.1,78,30.13,10.0,South,6.9,-,N/A,,Clear,190,2013-01-23 11:35:00
5:55 AM,14.2,8.8,79,30.13,10.0,South,5.8,-,N/A,,Clear,190,2013-01-23 11:55:00
6:15 AM,13.5,8.4,80,30.14,10.0,SSW,4.6,-,N/A,,Clear,210,2013-01-23 12:15:00
6:35 AM,12.9,7.7,80,30.15,10.0,SW,8.1,-,N/A,,Clear,220,2013-01-23 12:35:00
6:55 AM,14.2,8.8,79,30.15,10.0,WSW,5.8,-,N/A,,Clear,240,2013-01-23 12:55:00
7:15 AM,14.5,8.8,78,30.16,10.0,WSW,5.8,-,N/A,,Clear,240,2013-01-23 13:15:00
7:35 AM,14.9,8.8,77,30.16,10.0,SW,3.5,-,N/A,,Clear,230,2013-01-23 13:35:00
7:55 AM,15.8,9.5,76,30.16,10.0,Calm,Calm,-,N/A,,Clear,0,2013-01-23 13:55:00
8:15 AM,15.6,9.3,76,30.16,10.0,West,3.5,-,N/A,,Clear,270,2013-01-23 14:15:00
8:35 AM,15.6,9.5,77,30.17,10.0,WNW,4.6,-,N/A,,Clear,290,2013-01-23 14:35:00
8:55 AM,16.7,10.4,76,30.17,10.0,WNW,6.9,-,N/A,,Clear,290,2013-01-23 14:55:00
9:15 AM,17.2,11.3,78,30.19,10.0,NW,9.2,-,N/A,,Clear,320,2013-01-23 15:15:00
9:35 AM,21.0,13.8,74,30.19,10.0,North,9.2,-,N/A,,Clear,350,2013-01-23 15:35:00
9:55 AM,22.5,14.2,71,30.21,10.0,North,15.0,-,N/A,,Clear,350,2013-01-23 15:55:00
10:15 AM,22.5,14.5,72,30.21,10.0,North,17.3,-,N/A,,Clear,360,2013-01-23 16:15:00
10:35 AM,22.8,15.1,72,30.23,10.0,North,11.5,-,N/A,,Clear,350,2013-01-23 16:35:00
10:55 AM,23.7,16.0,72,30.23,10.0,North,13.8,-,N/A,,Clear,350,2013-01-23 16:55:00
11:15 AM,23.9,15.4,70,30.23,10.0,North,17.3,-,N/A,,Clear,350,2013-01-23 17:15:00
11:35 AM,24.4,16.2,71,30.23,10.0,NNW,15.0,20.7,N/A,,Clear,340,2013-01-23 17:35:00
11:55 AM,24.8,16.3,70,30.24,10.0,North,13.8,-,N/A,,Clear,350,2013-01-23 17:55:00
12:15 PM,25.7,16.7,69,30.24,10.0,North,17.3,-,N/A,,Clear,350,2013-01-23 18:15:00
12:35 PM,26.4,17.4,69,30.24,10.0,NNW,15.0,-,N/A,,Clear,330,2013-01-23 18:35:00
12:55 PM,27.1,17.8,68,30.24,10.0,NNW,16.1,-,N/A,,Clear,340,2013-01-23 18:55:00
1:15 PM,27.7,17.8,66,30.25,10.0,North,16.1,-,N/A,,Clear,350,2013-01-23 19:15:00
1:35 PM,27.5,17.8,67,30.25,10.0,North,17.3,23.0,N/A,,Clear,350,2013-01-23 19:35:00
1:55 PM,28.0,18.0,66,30.25,10.0,NNW,15.0,20.7,N/A,,Clear,340,2013-01-23 19:55:00
2:15 PM,28.0,17.4,64,30.25,10.0,North,18.4,-,N/A,,Clear,350,2013-01-23 20:15:00
2:35 PM,28.4,17.6,64,30.25,10.0,NNW,13.8,-,N/A,,Clear,340,2013-01-23 20:35:00
2:55 PM,29.1,18.0,63,30.26,10.0,NNW,17.3,-,N/A,,Clear,340,2013-01-23 20:55:00
3:15 PM,28.9,17.8,63,30.25,10.0,North,18.4,-,N/A,,Clear,350,2013-01-23 21:15:00
3:35 PM,29.1,17.2,61,30.28,10.0,North,16.1,24.2,N/A,,Clear,350,2013-01-23 21:35:00
3:55 PM,28.2,15.8,60,30.28,10.0,North,13.8,21.9,N/A,,Clear,350,2013-01-23 21:55:00
4:15 PM,27.5,15.3,60,30.30,10.0,North,15.0,-,N/A,,Clear,350,2013-01-23 22:15:00
4:35 PM,26.8,15.1,61,30.30,10.0,North,19.6,-,N/A,,Clear,350,2013-01-23 22:35:00
4:55 PM,25.7,14.2,62,30.30,10.0,North,16.1,-,N/A,,Clear,360,2013-01-23 22:55:00
5:15 PM,24.3,14.0,65,30.32,10.0,North,15.0,19.6,N/A,,Clear,360,2013-01-23 23:15:00
5:35 PM,23.2,13.8,67,30.33,10.0,North,15.0,20.7,N/A,,Clear,360,2013-01-23 23:35:00
5:55 PM,22.3,13.1,68,30.34,10.0,North,15.0,-,N/A,,Clear,350,2013-01-23 23:55:00
6:15 PM,21.7,12.4,67,30.35,10.0,NNW,18.4,-,N/A,,Clear,340,2013-01-24 00:15:00
6:35 PM,21.2,11.5,66,30.36,10.0,North,15.0,24.2,N/A,,Clear,350,2013-01-24 00:35:00
6:55 PM,20.1,10.2,66,30.37,10.0,North,19.6,26.5,N/A,,Clear,360,2013-01-24 00:55:00
7:15 PM,18.9,8.6,64,30.39,10.0,North,16.1,21.9,N/A,,Clear,360,2013-01-24 01:15:00
7:35 PM,18.1,7.7,64,30.39,10.0,North,13.8,25.3,N/A,,Clear,360,2013-01-24 01:35:00
7:55 PM,17.4,7.2,64,30.40,10.0,North,20.7,27.6,N/A,,Clear,360,2013-01-24 01:55:00
8:15 PM,16.7,6.3,64,30.40,10.0,North,15.0,19.6,N/A,,Clear,360,2013-01-24 02:15:00
8:35 PM,16.2,5.0,62,30.41,10.0,North,13.8,25.3,N/A,,Clear,360,2013-01-24 02:35:00
8:55 PM,15.4,5.5,65,30.41,10.0,North,15.0,-,N/A,,Clear,360,2013-01-24 02:55:00
9:15 PM,14.9,5.5,66,30.42,10.0,North,15.0,-,N/A,,Clear,360,2013-01-24 03:15:00
9:35 PM,14.4,5.5,68,30.43,10.0,North,11.5,-,N/A,,Clear,360,2013-01-24 03:35:00
9:55 PM,13.8,5.4,69,30.43,10.0,North,16.1,19.6,N/A,,Clear,360,2013-01-24 03:55:00
10:15 PM,12.9,3.7,67,30.45,10.0,North,15.0,-,N/A,,Clear,350,2013-01-24 04:15:00
10:35 PM,11.8,2.5,66,30.46,10.0,North,12.7,17.3,N/A,,Clear,360,2013-01-24 04:35:00
10:55 PM,11.1,1.4,65,30.46,10.0,North,12.7,-,N/A,,Clear,360,2013-01-24 04:55:00
11:15 PM,10.4,1.4,67,30.48,10.0,North,9.2,-,N/A,,Clear,10,2013-01-24 05:15:00
11:35 PM,9.3,-0.6,64,30.49,10.0,North,12.7,-,N/A,,Clear,360,2013-01-24 05:35:00
11:55 PM,8.6,-1.1,65,30.49,10.0,North,9.2,-,N/A,,Clear,360,2013-01-24 05:55:00